createdAt,value
2018-03-19T00:00:44.944Z,1.77
2018-03-19T00:03:13.978Z,1.20
2018-03-19T00:05:42.886Z,1.58
2018-03-19T00:08:11.439Z,1.36
2018-03-19T00:10:40.139Z,1.17
2018-03-19T00:13:09.003Z,1.37
2018-03-19T00:15:37.966Z,1.74
2018-03-19T00:18:07.043Z,1.23
2018-03-19T00:20:36.086Z,0.84
2018-03-19T00:23:05.254Z,1.27
2018-03-19T00:25:33.927Z,1.26
2018-03-19T00:28:03.258Z,1.54
2018-03-19T00:30:31.945Z,1.47
2018-03-19T00:33:01.384Z,1.32
2018-03-19T00:35:29.938Z,1.29
2018-03-19T00:37:58.396Z,1.47
2018-03-19T00:40:27.801Z,1.80
2018-03-19T00:42:56.758Z,1.50
2018-03-19T00:45:25.767Z,1.42
2018-03-19T00:47:54.517Z,1.30
2018-03-19T00:50:23.660Z,1.66
2018-03-19T00:52:52.365Z,1.02
2018-03-19T00:55:21.749Z,1.25
2018-03-19T00:57:50.370Z,1.51
2018-03-19T01:00:19.093Z,1.36
2018-03-19T01:02:47.843Z,1.26
2018-03-19T01:05:16.740Z,1.29
2018-03-19T01:07:45.382Z,1.53
2018-03-19T01:10:14.810Z,1.63
2018-03-19T01:12:43.568Z,1.65
2018-03-19T01:15:12.374Z,1.42
2018-03-19T01:17:41.269Z,1.30
2018-03-19T01:20:10.645Z,1.48
2018-03-19T01:22:39.213Z,1.17
2018-03-19T01:25:08.074Z,1.23
2018-03-19T01:27:36.735Z,1.16
2018-03-19T01:30:05.311Z,0.80
2018-03-19T01:32:34.369Z,0.99
2018-03-19T01:35:03.042Z,1.17
2018-03-19T01:37:31.733Z,1.24
2018-03-19T01:40:00.541Z,1.23
2018-03-19T01:42:29.266Z,1.08
2018-03-19T01:44:58.319Z,0.60
2018-03-19T01:47:27.376Z,0.76
2018-03-19T01:49:56.199Z,1.28
2018-03-19T01:55:33.855Z,1.02
2018-03-19T01:58:02.418Z,0.98
2018-03-19T02:00:30.812Z,0.80
2018-03-19T02:02:59.617Z,0.79
2018-03-19T02:05:28.382Z,0.63
2018-03-19T02:07:56.875Z,1.03
2018-03-19T02:10:25.649Z,0.78
2018-03-19T02:12:54.041Z,1.03
2018-03-19T02:15:22.417Z,0.84
2018-03-19T02:17:50.820Z,0.89
2018-03-19T02:20:19.197Z,0.51
2018-03-19T02:22:47.601Z,1.23
2018-03-19T02:25:16.334Z,0.88
2018-03-19T02:27:44.734Z,0.71
2018-03-19T02:30:13.506Z,0.70
2018-03-19T02:32:41.932Z,0.56
2018-03-19T02:35:10.309Z,0.51
2018-03-19T02:37:38.717Z,0.32
2018-03-19T02:40:07.179Z,0.73
2018-03-19T02:42:35.609Z,0.98
2018-03-19T02:45:04.440Z,0.77
2018-03-19T02:47:32.805Z,0.72
2018-03-19T02:50:01.176Z,0.39
2018-03-19T02:52:29.564Z,0.35
2018-03-19T02:54:57.941Z,0.41
2018-03-19T02:57:26.768Z,0.26
2018-03-19T02:59:56.938Z,0.39
2018-03-19T03:02:25.749Z,0.56
2018-03-19T03:04:54.115Z,0.50
2018-03-19T03:07:22.498Z,0.45
2018-03-19T03:09:50.930Z,0.07
2018-03-19T03:12:19.290Z,0.71
2018-03-19T03:14:47.645Z,0.20
2018-03-19T03:17:16.154Z,0.35
2018-03-19T03:19:44.775Z,0.47
2018-03-19T03:22:13.196Z,0.21
2018-03-19T03:24:41.557Z,0.47
2018-03-19T03:27:09.935Z,0.47
2018-03-19T03:29:38.280Z,0.48
2018-03-19T03:32:06.673Z,0.19
2018-03-19T03:34:35.113Z,0.41
2018-03-19T03:37:03.490Z,0.41
2018-03-19T03:39:31.858Z,0.29
2018-03-19T03:42:00.235Z,0.10
2018-03-19T03:44:28.617Z,0.51
2018-03-19T03:46:57.002Z,0.22
2018-03-19T03:49:25.408Z,0.30
2018-03-19T03:51:53.852Z,0.04
2018-03-19T03:54:22.241Z,0.02
2018-03-19T03:56:50.846Z,0.13
2018-03-19T03:59:19.221Z,0.10
2018-03-19T04:01:47.582Z,0.33
2018-03-19T04:04:15.959Z,0.37
2018-03-19T04:06:44.353Z,0.19
2018-03-19T04:09:12.752Z,0.12
2018-03-19T04:11:41.180Z,0.14
2018-03-19T04:14:09.600Z,-0.12
2018-03-19T04:16:38.391Z,0.16
2018-03-19T04:19:06.776Z,0.31
2018-03-19T04:21:35.149Z,0.12
2018-03-19T04:24:03.552Z,0.00
2018-03-19T04:26:31.948Z,0.22
2018-03-19T04:29:00.336Z,0.07
2018-03-19T04:31:28.728Z,0.36
2018-03-19T04:33:57.112Z,0.32
2018-03-19T04:36:25.530Z,0.48
2018-03-19T04:38:53.930Z,-0.01
2018-03-19T04:41:22.326Z,0.10
2018-03-19T04:43:51.004Z,0.37
2018-03-19T04:46:20.744Z,0.52
2018-03-19T04:48:49.134Z,0.20
2018-03-19T04:51:17.516Z,-0.29
2018-03-19T04:56:20.789Z,0.16
2018-03-19T04:58:49.187Z,-0.06
2018-03-19T05:01:17.546Z,0.10
2018-03-19T05:03:46.414Z,-0.06
2018-03-19T05:06:15.223Z,0.25
2018-03-19T05:08:43.735Z,-0.21
2018-03-19T05:11:12.114Z,0.10
2018-03-19T05:13:40.488Z,0.47
2018-03-19T05:16:08.910Z,0.28
2018-03-19T05:18:37.438Z,0.05
2018-03-19T05:21:05.929Z,0.15
2018-03-19T05:23:34.375Z,-0.28
2018-03-19T05:26:02.757Z,0.02
2018-03-19T05:28:31.145Z,0.08
2018-03-19T05:30:59.560Z,0.22
2018-03-19T05:33:28.821Z,0.09
2018-03-19T05:35:57.196Z,-0.03
2018-03-19T05:38:25.985Z,-0.06
2018-03-19T05:40:54.372Z,-0.10
2018-03-19T05:43:22.759Z,0.95
2018-03-19T05:45:51.130Z,2.46
2018-03-19T05:48:19.550Z,3.44
2018-03-19T05:50:48.016Z,4.24
2018-03-19T05:53:16.416Z,4.93
2018-03-19T05:55:44.830Z,4.84
2018-03-19T05:58:13.292Z,5.63
2018-03-19T06:00:41.770Z,5.50
2018-03-19T06:03:10.127Z,6.03
2018-03-19T06:05:38.556Z,6.88
2018-03-19T06:08:06.944Z,7.42
2018-03-19T06:10:35.376Z,8.33
2018-03-19T06:13:03.808Z,8.27
2018-03-19T06:15:32.211Z,9.33
2018-03-19T06:18:00.575Z,10.68
2018-03-19T06:20:29.025Z,10.45
2018-03-19T06:22:57.403Z,11.47
2018-03-19T06:25:26.340Z,12.30
2018-03-19T06:27:54.752Z,12.77
2018-03-19T06:30:23.168Z,13.04
2018-03-19T06:32:51.644Z,13.01
2018-03-19T06:35:20.106Z,12.75
2018-03-19T06:40:23.193Z,13.52
2018-03-19T06:42:51.677Z,12.10
2018-03-19T06:45:20.189Z,13.11
2018-03-19T06:47:48.741Z,13.57
2018-03-19T06:50:17.351Z,14.01
2018-03-19T06:52:46.098Z,13.54
2018-03-19T06:55:14.600Z,14.08
2018-03-19T06:57:43.202Z,13.82
2018-03-19T07:00:12.132Z,14.63
2018-03-19T07:02:40.889Z,15.24
2018-03-19T07:05:09.285Z,14.53
2018-03-19T07:07:37.704Z,14.93
2018-03-19T07:10:06.230Z,15.74
2018-03-19T07:12:34.887Z,15.99
2018-03-19T07:15:03.321Z,16.20
2018-03-19T07:17:31.849Z,14.26
2018-03-19T07:20:00.569Z,15.54
2018-03-19T07:22:29.047Z,15.69
2018-03-19T07:24:57.544Z,14.80
2018-03-19T07:27:25.999Z,14.64
2018-03-19T07:29:54.682Z,16.18
2018-03-19T07:32:24.216Z,16.30
2018-03-19T07:34:52.797Z,15.50
2018-03-19T07:37:21.277Z,14.45
2018-03-19T07:39:49.711Z,15.22
2018-03-19T07:42:18.142Z,15.30
2018-03-19T07:44:46.658Z,14.77
2018-03-19T07:47:15.087Z,15.71
2018-03-19T07:49:43.604Z,15.09
2018-03-19T07:52:12.265Z,15.37
2018-03-19T07:54:40.739Z,16.41
2018-03-19T07:57:09.153Z,17.23
2018-03-19T07:59:37.886Z,16.55
2018-03-19T08:02:06.365Z,16.30
2018-03-19T08:04:34.865Z,17.02
2018-03-19T08:07:04.344Z,16.88
2018-03-19T08:09:32.835Z,16.41
2018-03-19T08:12:01.384Z,17.45
2018-03-19T08:14:30.079Z,17.38
2018-03-19T08:16:58.553Z,16.87
2018-03-19T08:19:27.780Z,16.47
2018-03-19T08:21:56.244Z,17.18
2018-03-19T08:24:24.840Z,16.73
2018-03-19T08:27:06.436Z,15.21
2018-03-19T08:29:34.956Z,14.98
2018-03-19T08:32:03.359Z,15.01
2018-03-19T08:34:31.817Z,14.67
2018-03-19T08:37:00.352Z,14.73
2018-03-19T08:39:28.826Z,15.81
2018-03-19T08:41:57.327Z,16.52
2018-03-19T08:44:25.718Z,16.34
2018-03-19T08:46:54.387Z,16.00
2018-03-19T08:49:22.898Z,14.79
2018-03-19T08:51:51.427Z,14.28
2018-03-19T08:54:21.145Z,14.42
2018-03-19T08:56:49.553Z,15.87
2018-03-19T08:59:18.283Z,15.03
2018-03-19T09:01:46.724Z,14.67
2018-03-19T09:04:15.354Z,14.55
2018-03-19T09:06:44.268Z,14.41
2018-03-19T09:09:12.781Z,14.09
2018-03-19T09:11:41.224Z,14.07
2018-03-19T09:14:09.877Z,14.91
2018-03-19T09:16:38.343Z,14.84
2018-03-19T09:19:06.837Z,14.01
2018-03-19T09:21:35.251Z,14.77
2018-03-19T09:24:03.669Z,14.85
2018-03-19T09:26:32.052Z,15.53
2018-03-19T09:29:00.476Z,14.70
2018-03-19T09:31:28.947Z,15.07
2018-03-19T09:33:57.371Z,14.48
2018-03-19T09:36:25.777Z,14.52
2018-03-19T09:38:54.218Z,15.02
2018-03-19T09:41:22.658Z,15.38
2018-03-19T09:43:51.325Z,15.65
2018-03-19T09:46:19.814Z,15.65
2018-03-19T09:48:49.041Z,15.91
2018-03-19T09:51:20.228Z,16.35
2018-03-19T09:53:48.719Z,16.29
2018-03-19T09:56:17.149Z,15.67
2018-03-19T09:58:45.589Z,15.05
2018-03-19T10:01:14.041Z,14.72
2018-03-19T10:03:42.474Z,14.71
2018-03-19T10:06:10.924Z,14.45
2018-03-19T10:08:39.522Z,14.09
2018-03-19T10:11:07.996Z,13.55
2018-03-19T10:13:36.720Z,13.44
2018-03-19T10:16:05.478Z,13.35
2018-03-19T10:18:34.506Z,13.35
2018-03-19T10:21:03.004Z,14.21
2018-03-19T10:23:31.448Z,15.37
2018-03-19T10:25:59.864Z,16.08
2018-03-19T10:28:28.276Z,15.70
2018-03-19T10:30:57.264Z,15.77
2018-03-19T10:33:25.711Z,14.67
2018-03-19T10:35:54.166Z,15.03
2018-03-19T10:38:22.709Z,15.32
2018-03-19T10:40:51.340Z,15.80
2018-03-19T10:43:20.166Z,13.75
2018-03-19T10:45:48.619Z,13.94
2018-03-19T10:48:17.168Z,14.86
2018-03-19T10:50:45.564Z,14.91
2018-03-19T10:53:14.198Z,16.00
2018-03-19T10:55:42.844Z,13.70
2018-03-19T10:58:11.545Z,13.12
2018-03-19T11:00:39.949Z,13.49
2018-03-19T11:03:08.844Z,14.05
2018-03-19T11:05:42.829Z,14.15
2018-03-19T11:08:11.314Z,12.82
2018-03-19T11:10:39.774Z,11.64
2018-03-19T11:13:08.211Z,11.14
2018-03-19T11:15:36.638Z,11.19
2018-03-19T11:18:05.295Z,10.41
2018-03-19T11:20:33.792Z,9.68
2018-03-19T11:23:02.416Z,10.42
2018-03-19T11:25:31.099Z,9.75
2018-03-19T11:27:59.567Z,8.13
2018-03-19T11:30:28.049Z,7.99
2018-03-19T11:32:56.460Z,7.84
2018-03-19T11:35:25.049Z,6.95
2018-03-19T11:37:53.672Z,7.27
2018-03-19T11:40:22.140Z,7.75
2018-03-19T11:42:50.525Z,8.21
2018-03-19T11:45:18.974Z,7.61
2018-03-19T11:47:48.249Z,6.89
2018-03-19T11:50:16.630Z,6.89
2018-03-19T11:52:46.422Z,7.37
2018-03-19T11:55:15.124Z,6.25
2018-03-19T11:57:43.503Z,7.06
2018-03-19T12:00:12.113Z,6.77
2018-03-19T12:02:40.491Z,7.11
2018-03-19T12:05:08.898Z,6.71
2018-03-19T12:07:37.602Z,6.53
2018-03-19T12:10:05.990Z,6.25
2018-03-19T12:12:34.656Z,7.06
2018-03-19T12:15:03.101Z,7.18
2018-03-19T12:17:31.588Z,6.83
2018-03-19T12:20:00.809Z,6.30
2018-03-19T12:22:29.316Z,6.87
2018-03-19T12:24:57.810Z,6.89
2018-03-19T12:27:26.272Z,6.60
2018-03-19T12:29:54.882Z,7.07
2018-03-19T12:32:23.425Z,7.20
2018-03-19T12:34:51.939Z,6.69
2018-03-19T12:37:20.371Z,7.21
2018-03-19T12:39:48.751Z,7.19
2018-03-19T12:42:17.388Z,7.25
2018-03-19T12:44:45.814Z,7.88
2018-03-19T12:47:14.242Z,7.33
2018-03-19T12:49:42.802Z,6.78
2018-03-19T12:52:11.295Z,7.83
2018-03-19T12:54:40.898Z,7.56
2018-03-19T12:57:09.337Z,7.86
2018-03-19T12:59:37.725Z,8.13
2018-03-19T13:02:06.536Z,7.53
2018-03-19T13:04:34.998Z,6.94
2018-03-19T13:07:03.975Z,7.13
2018-03-19T13:09:32.631Z,8.23
2018-03-19T13:12:01.389Z,8.06
2018-03-19T13:14:29.843Z,6.95
2018-03-19T13:16:58.318Z,6.47
2018-03-19T13:19:27.185Z,6.65
2018-03-19T13:21:56.128Z,6.86
2018-03-19T13:24:24.936Z,7.53
2018-03-19T13:26:53.658Z,7.79
2018-03-19T13:29:22.098Z,7.52
2018-03-19T13:31:50.578Z,7.12
2018-03-19T13:34:19.304Z,7.06
2018-03-19T13:36:47.996Z,7.04
2018-03-19T13:39:16.381Z,7.65
2018-03-19T13:41:44.833Z,8.03
2018-03-19T13:44:13.211Z,7.93
2018-03-19T13:46:41.620Z,8.32
2018-03-19T13:49:10.345Z,8.61
2018-03-19T13:51:39.004Z,8.10
2018-03-19T13:54:07.415Z,8.59
2018-03-19T13:56:36.059Z,8.59
2018-03-19T13:59:04.477Z,8.30
2018-03-19T14:01:32.964Z,8.59
2018-03-19T14:04:01.340Z,8.52
2018-03-19T14:06:30.063Z,8.58
2018-03-19T14:08:58.749Z,8.98
2018-03-19T14:11:27.143Z,8.79
2018-03-19T14:13:55.653Z,8.19
2018-03-19T14:16:24.086Z,8.17
2018-03-19T14:18:52.485Z,8.17
2018-03-19T14:21:20.967Z,8.12
2018-03-19T14:23:49.340Z,7.67
2018-03-19T14:26:17.742Z,7.30
2018-03-19T14:28:46.129Z,7.50
2018-03-19T14:31:14.956Z,7.03
2018-03-19T14:33:43.536Z,7.05
2018-03-19T14:36:11.997Z,7.21
2018-03-19T14:38:40.537Z,7.62
2018-03-19T14:41:08.988Z,7.84
2018-03-19T14:43:37.373Z,8.40
2018-03-19T14:46:06.180Z,8.76
2018-03-19T14:48:34.584Z,8.33
2018-03-19T14:51:03.438Z,7.81
2018-03-19T14:53:32.050Z,7.35
2018-03-19T14:56:00.452Z,7.72
2018-03-19T14:58:29.484Z,7.93
2018-03-19T15:00:57.989Z,6.85
2018-03-19T15:03:26.681Z,7.43
2018-03-19T15:05:55.104Z,7.34
2018-03-19T15:08:23.621Z,7.68
2018-03-19T15:10:52.234Z,8.28
2018-03-19T15:13:20.901Z,7.79
2018-03-19T15:15:49.267Z,7.84
2018-03-19T15:18:17.651Z,7.95
2018-03-19T15:20:46.148Z,8.25
2018-03-19T15:23:14.520Z,8.93
2018-03-19T15:25:46.666Z,7.94
2018-03-19T15:28:15.090Z,8.08
2018-03-19T15:30:43.525Z,8.34
2018-03-19T15:33:11.905Z,8.09
2018-03-19T15:35:40.323Z,8.26
2018-03-19T15:38:08.774Z,8.34
2018-03-19T15:40:37.240Z,7.94
2018-03-19T15:43:05.692Z,8.60
2018-03-19T15:45:34.105Z,8.33
2018-03-19T15:48:02.513Z,8.55
2018-03-19T15:50:31.008Z,8.21
2018-03-19T15:52:59.428Z,8.01
2018-03-19T15:55:28.040Z,8.10
2018-03-19T15:57:56.470Z,8.10
2018-03-19T16:00:24.882Z,7.95
2018-03-19T16:02:53.635Z,7.90
2018-03-19T16:05:22.152Z,8.25
2018-03-19T16:07:50.604Z,8.42
2018-03-19T16:10:19.368Z,8.11
2018-03-19T16:12:47.807Z,7.77
2018-03-19T16:15:16.327Z,7.50
2018-03-19T16:17:44.849Z,7.84
2018-03-19T16:20:13.433Z,8.06
2018-03-19T16:22:41.870Z,8.18
2018-03-19T16:25:10.281Z,8.26
2018-03-19T16:27:39.232Z,7.88
2018-03-19T16:30:07.869Z,8.10
2018-03-19T16:32:36.339Z,7.88
2018-03-19T16:35:04.720Z,8.12
2018-03-19T16:37:33.292Z,7.38
2018-03-19T16:40:01.822Z,7.60
2018-03-19T16:42:30.340Z,7.57
2018-03-19T16:44:58.987Z,7.75
2018-03-19T16:47:27.588Z,7.69
2018-03-19T16:49:55.954Z,8.08
2018-03-19T16:52:24.456Z,7.97
2018-03-19T16:54:52.974Z,7.40
2018-03-19T16:57:21.443Z,7.51
2018-03-19T16:59:49.812Z,7.58
2018-03-19T17:02:18.286Z,7.66
2018-03-19T17:04:46.679Z,6.92
2018-03-19T17:07:15.161Z,7.26
2018-03-19T17:09:43.612Z,6.95
2018-03-19T17:12:11.983Z,7.73
2018-03-19T17:14:40.415Z,6.97
2018-03-19T17:17:08.923Z,7.14
2018-03-19T17:19:37.404Z,7.50
2018-03-19T17:22:05.811Z,7.25
2018-03-19T17:24:34.324Z,7.36
2018-03-19T17:27:02.699Z,7.58
2018-03-19T17:29:31.305Z,7.72
2018-03-19T17:31:59.984Z,7.28
2018-03-19T17:34:28.343Z,7.23
2018-03-19T17:36:56.740Z,7.63
2018-03-19T17:39:25.176Z,7.39
2018-03-19T17:41:53.648Z,7.18
2018-03-19T17:44:22.164Z,7.53
2018-03-19T17:46:50.628Z,7.16
2018-03-19T17:49:18.993Z,6.84
2018-03-19T17:51:47.458Z,7.09
2018-03-19T17:54:15.900Z,6.98
2018-03-19T17:56:44.743Z,6.56
2018-03-19T17:59:13.157Z,6.99
2018-03-19T18:01:41.805Z,7.17
2018-03-19T18:04:10.235Z,7.18
2018-03-19T18:06:38.678Z,7.17
2018-03-19T18:09:07.077Z,6.47
2018-03-19T18:11:35.581Z,6.78
2018-03-19T18:14:03.977Z,7.17
2018-03-19T18:16:32.369Z,7.09
2018-03-19T18:19:00.875Z,7.20
2018-03-19T18:21:29.280Z,7.10
2018-03-19T18:23:57.733Z,7.32
2018-03-19T18:26:26.124Z,7.21
2018-03-19T18:28:54.534Z,7.19
2018-03-19T18:31:23.105Z,7.31
2018-03-19T18:33:51.835Z,6.98
2018-03-19T18:36:20.218Z,7.18
2018-03-19T18:38:48.738Z,7.13
2018-03-19T18:41:17.271Z,7.15
2018-03-19T18:43:45.747Z,6.98
2018-03-19T18:46:14.160Z,6.99
2018-03-19T18:48:42.750Z,7.17
2018-03-19T18:51:11.112Z,7.13
2018-03-19T18:53:39.688Z,7.04
2018-03-19T18:56:08.070Z,6.98
2018-03-19T18:58:36.705Z,7.00
2018-03-19T19:01:05.177Z,7.03
2018-03-19T19:03:33.620Z,6.53
2018-03-19T19:06:01.991Z,6.87
2018-03-19T19:08:30.425Z,6.78
2018-03-19T19:10:59.063Z,6.88
2018-03-19T19:13:27.468Z,7.01
2018-03-19T19:15:55.934Z,6.96
2018-03-19T19:18:24.326Z,6.75
2018-03-19T19:20:53.240Z,6.89
2018-03-19T19:23:21.662Z,6.95
2018-03-19T19:25:50.143Z,6.87
2018-03-19T19:28:18.579Z,6.84
2018-03-19T19:30:47.318Z,6.92
2018-03-19T19:33:15.680Z,6.93
2018-03-19T19:35:44.040Z,6.89
2018-03-19T19:38:12.657Z,6.88
2018-03-19T19:40:41.392Z,6.84
2018-03-19T19:43:10.066Z,6.78
2018-03-19T19:45:38.461Z,6.78
2018-03-19T19:48:06.883Z,6.71
2018-03-19T19:50:35.388Z,6.68
2018-03-19T19:53:03.872Z,6.58
2018-03-19T19:55:32.368Z,6.52
2018-03-19T19:58:01.032Z,6.45
2018-03-19T20:00:29.531Z,6.37
2018-03-19T20:02:57.948Z,6.27
2018-03-19T20:05:26.318Z,6.22
2018-03-19T20:07:54.715Z,6.23
2018-03-19T20:10:23.705Z,6.09
2018-03-19T20:12:52.415Z,6.09
2018-03-19T20:15:21.293Z,6.10
2018-03-19T20:17:49.863Z,6.08
2018-03-19T20:20:18.331Z,6.07
2018-03-19T20:22:46.756Z,6.04
2018-03-19T20:25:15.386Z,6.05
2018-03-19T20:27:43.759Z,6.07
2018-03-19T20:30:12.147Z,6.04
2018-03-19T20:32:40.567Z,6.00
2018-03-19T20:35:09.136Z,5.94
2018-03-19T20:37:37.615Z,5.95
2018-03-19T20:40:06.063Z,5.94
2018-03-19T20:42:34.905Z,5.95
2018-03-19T20:45:03.668Z,5.95
2018-03-19T20:47:32.042Z,5.90
2018-03-19T20:50:00.864Z,5.89
2018-03-19T20:52:29.313Z,5.84
2018-03-19T20:54:57.836Z,5.90
2018-03-19T20:57:26.328Z,5.82
2018-03-19T20:59:54.946Z,5.84
2018-03-19T21:02:23.337Z,5.89
2018-03-19T21:04:51.768Z,5.87
2018-03-19T21:07:20.142Z,5.86
2018-03-19T21:09:48.542Z,5.83
2018-03-19T21:12:16.925Z,5.77
2018-03-19T21:14:45.469Z,5.77
2018-03-19T21:17:14.056Z,5.72
2018-03-19T21:19:42.464Z,5.62
2018-03-19T21:22:11.073Z,5.67
2018-03-19T21:24:39.497Z,5.70
2018-03-19T21:27:07.920Z,5.62
2018-03-19T21:29:36.683Z,5.62
2018-03-19T21:32:05.159Z,5.65
2018-03-19T21:34:33.593Z,5.67
2018-03-19T21:37:01.957Z,5.64
2018-03-19T21:39:30.374Z,5.61
2018-03-19T21:41:58.952Z,5.60
2018-03-19T21:44:27.426Z,5.67
2018-03-19T21:46:56.124Z,5.65
2018-03-19T21:49:24.735Z,5.62
2018-03-19T21:51:53.189Z,5.56
2018-03-19T21:54:21.807Z,5.50
2018-03-19T21:56:50.626Z,5.52
2018-03-19T21:59:19.028Z,5.56
2018-03-19T22:01:47.578Z,5.45
2018-03-19T22:04:16.064Z,5.01
2018-03-19T22:06:44.717Z,4.63
2018-03-19T22:09:13.351Z,4.86
2018-03-19T22:11:41.815Z,4.99
2018-03-19T22:14:10.268Z,5.28
2018-03-19T22:16:38.726Z,5.18
2018-03-19T22:19:07.148Z,5.27
2018-03-19T22:21:35.726Z,5.28
2018-03-19T22:24:04.378Z,5.24
2018-03-19T22:26:33.106Z,5.21
2018-03-19T22:29:01.579Z,5.12
2018-03-19T22:31:30.188Z,5.22
2018-03-19T22:33:58.576Z,5.30
2018-03-19T22:36:27.244Z,5.15
2018-03-19T22:38:55.910Z,5.23
2018-03-19T22:41:24.393Z,5.22
2018-03-19T22:43:53.067Z,5.16
2018-03-19T22:46:21.523Z,5.14
2018-03-19T22:48:50.270Z,5.05
2018-03-19T22:51:18.872Z,5.04
2018-03-19T22:53:47.335Z,4.97
2018-03-19T22:56:16.015Z,5.03
2018-03-19T22:58:44.680Z,4.96
2018-03-19T23:01:13.268Z,5.04
2018-03-19T23:03:41.691Z,5.02
2018-03-19T23:06:10.180Z,5.11
2018-03-19T23:08:38.694Z,5.07
2018-03-19T23:11:07.090Z,4.98
2018-03-19T23:13:35.849Z,5.04
2018-03-19T23:16:04.251Z,5.03
2018-03-19T23:18:32.681Z,5.03
2018-03-19T23:21:01.252Z,5.00
2018-03-19T23:23:29.872Z,4.90
2018-03-19T23:25:58.384Z,4.92
2018-03-19T23:28:26.851Z,4.89
2018-03-19T23:30:55.277Z,4.97
2018-03-19T23:33:23.663Z,4.91
2018-03-19T23:35:52.208Z,4.92
2018-03-19T23:38:20.754Z,4.90
2018-03-19T23:40:49.160Z,4.94
2018-03-19T23:43:17.566Z,4.91
2018-03-19T23:45:46.011Z,4.94
2018-03-19T23:48:14.447Z,4.83
2018-03-19T23:50:42.921Z,4.93
2018-03-19T23:53:11.388Z,4.87
2018-03-19T23:55:40.728Z,4.80
2018-03-19T23:58:09.584Z,4.70
